Observation data for Memphis on 08/06/2020      Previous  Date       Current Mesonet Observations  Soil Data  Daily Summary Page  Observations in Plain Language
KMES 060500Z 11006KT 25/19 A2999 RMK A01 T02450185  RH  073%=      5-min Rain = 0
KMES 060505Z 11006KT 24/19 A2999 RMK A01 T02440186  RH  074%=      5-min Rain = 0
KMES 060510Z 10006KT 24/19 A2999 RMK A01 T02430186  RH  074%=      5-min Rain = 0
KMES 060515Z 10005KT 24/19 A2999 RMK A01 T02420186  RH  075%=      5-min Rain = 0
KMES 060520Z 10005KT 24/19 A2999 RMK A01 T02410186  RH  075%=      5-min Rain = 0
KMES 060525Z 10005KT 24/19 A2999 RMK A01 T02400186  RH  076%=      5-min Rain = 0
KMES 060530Z 10005KT 24/19 A2999 RMK A01 T02390186  RH  076%=      5-min Rain = 0
KMES 060535Z 09004KT 24/19 A2999 RMK A01 T02380186  RH  077%=      5-min Rain = 0
KMES 060540Z 09004KT 24/19 A2999 RMK A01 T02370186  RH  077%=      5-min Rain = 0
KMES 060545Z 10004KT 24/19 A2999 RMK A01 T02370186  RH  078%=      5-min Rain = 0
KMES 060550Z 09004KT 24/19 A2999 RMK A01 T02360187  RH  078%=      5-min Rain = 0
KMES 060555Z 10004KT 24/19 A2999 RMK A01 T02360187  RH  078%=      5-min Rain = 0
KMES 060600Z 10004KT 24/19 A2999 RMK A01 T02350187  RH  079%=      5-min Rain = 0
KMES 060605Z 10004KT 24/19 A2999 RMK A01 T02350187  RH  079%=      5-min Rain = 0
KMES 060610Z 10004KT 24/19 A2999 RMK A01 T02350187  RH  079%=      5-min Rain = 0
KMES 060615Z 10004KT 23/19 A2999 RMK A01 T02340187  RH  079%=      5-min Rain = 0
KMES 060620Z 09004KT 23/19 A2999 RMK A01 T02340188  RH  080%=      5-min Rain = 0
KMES 060625Z 09004KT 23/19 A2999 RMK A01 T02330188  RH  080%=      5-min Rain = 0
KMES 060630Z 09004KT 23/19 A2999 RMK A01 T02320188  RH  081%=      5-min Rain = 0
KMES 060635Z 09004KT 23/19 A2998 RMK A01 T02320188  RH  081%=      5-min Rain = 0
KMES 060640Z 08003KT 23/19 A2999 RMK A01 T02310189  RH  081%=      5-min Rain = 0
KMES 060645Z 07003KT 23/19 A2999 RMK A01 T02310189  RH  081%=      5-min Rain = 0
KMES 060650Z 06003KT 23/19 A2998 RMK A01 T02310190  RH  082%=      5-min Rain = 0
KMES 060655Z 06004KT 23/19 A2998 RMK A01 T02300190  RH  082%=      5-min Rain = 0
KMES 060700Z 06004KT 23/19 A2998 RMK A01 T02290190  RH  083%=      5-min Rain = 0
KMES 060705Z 06004KT 23/19 A2998 RMK A01 T02280190  RH  084%=      5-min Rain = 0
KMES 060710Z 06004KT 23/19 A2998 RMK A01 T02280191  RH  084%=      5-min Rain = 0
KMES 060715Z 06005KT 23/19 A2997 RMK A01 T02270191  RH  084%=      5-min Rain = 0
KMES 060720Z 07004KT 23/19 A2997 RMK A01 T02270191  RH  085%=      5-min Rain = 0
KMES 060725Z 07004KT 23/19 A2998 RMK A01 T02260191  RH  085%=      5-min Rain = 0
KMES 060730Z 07004KT 23/19 A2998 RMK A01 T02260191  RH  085%=      5-min Rain = 0
KMES 060735Z 06004KT 23/19 A2998 RMK A01 T02260191  RH  086%=      5-min Rain = 0
KMES 060740Z 06004KT 23/19 A2998 RMK A01 T02250191  RH  086%=      5-min Rain = 0
KMES 060745Z 06004KT 22/19 A2998 RMK A01 T02240191  RH  086%=      5-min Rain = 0
KMES 060750Z 06004KT 22/19 A2998 RMK A01 T02240192  RH  087%=      5-min Rain = 0
KMES 060755Z 06004KT 22/19 A2998 RMK A01 T02230192  RH  087%=      5-min Rain = 0
KMES 060800Z 05004KT 22/19 A2998 RMK A01 T02220192  RH  087%=      5-min Rain = 0
KMES 060805Z 05004KT 22/19 A2998 RMK A01 T02210191  RH  088%=      5-min Rain = 0
KMES 060810Z 05003KT 22/19 A2998 RMK A01 T02200192  RH  089%=      5-min Rain = 0
KMES 060815Z 07004KT 22/19 A2997 RMK A01 T02200192  RH  089%=      5-min Rain = 0
KMES 060820Z 07003KT 22/19 A2997 RMK A01 T02200192  RH  089%=      5-min Rain = 0
KMES 060825Z 07004KT 22/19 A2997 RMK A01 T02190192  RH  089%=      5-min Rain = 0
KMES 060830Z 07004KT 22/19 A2997 RMK A01 T02190193  RH  090%=      5-min Rain = 0
KMES 060835Z 07004KT 22/19 A2997 RMK A01 T02190194  RH  090%=      5-min Rain = 0
KMES 060840Z 08003KT 22/19 A2997 RMK A01 T02190194  RH  090%=      5-min Rain = 0
KMES 060845Z 07003KT 22/19 A2997 RMK A01 T02200194  RH  091%=      5-min Rain = 0
KMES 060850Z 07004KT 22/19 A2997 RMK A01 T02190194  RH  091%=      5-min Rain = 0
KMES 060855Z 07005KT 22/20 A2997 RMK A01 T02190195  RH  091%=      5-min Rain = 0
KMES 060900Z 07004KT 22/20 A2997 RMK A01 T02190195  RH  091%=      5-min Rain = 0
KMES 060905Z 07003KT 22/20 A2997 RMK A01 T02180195  RH  091%=      5-min Rain = 0
KMES 060910Z 07004KT 22/20 A2997 RMK A01 T02180195  RH  092%=      5-min Rain = 0
KMES 060915Z 06004KT 22/20 A2997 RMK A01 T02180195  RH  092%=      5-min Rain = 0
KMES 060920Z 06004KT 22/20 A2998 RMK A01 T02170195  RH  092%=      5-min Rain = 0
KMES 060925Z 07003KT 22/20 A2997 RMK A01 T02170196  RH  093%=      5-min Rain = 0
KMES 060930Z 08004KT 22/20 A2997 RMK A01 T02170196  RH  093%=      5-min Rain = 0
KMES 060935Z 09004KT 22/20 A2997 RMK A01 T02160196  RH  093%=      5-min Rain = 0
KMES 060940Z 08003KT 22/20 A2997 RMK A01 T02160196  RH  093%=      5-min Rain = 0
KMES 060945Z 08005KT 22/20 A2997 RMK A01 T02160196  RH  094%=      5-min Rain = 0
KMES 060950Z 09005KT 22/20 A2996 RMK A01 T02160196  RH  094%=      5-min Rain = 0
KMES 060955Z 09005KT 22/20 A2996 RMK A01 T02160197  RH  094%=      5-min Rain = 0
KMES 061000Z 08007KT 22/20 A2996 RMK A01 T02160197  RH  094%=      5-min Rain = 0
KMES 061005Z 08007KT 22/20 A2996 RMK A01 T02160197  RH  094%=      5-min Rain = 0
KMES 061010Z 08005KT 22/20 A2996 RMK A01 T02160197  RH  094%=      5-min Rain = 0
KMES 061015Z 09005KT 22/20 A2996 RMK A01 T02160197  RH  095%=      5-min Rain = 0
KMES 061020Z 10006KT 22/20 A2995 RMK A01 T02160197  RH  095%=      5-min Rain = 0
KMES 061025Z 10006KT 22/20 A2995 RMK A01 T02150197  RH  095%=      5-min Rain = 0
KMES 061030Z 10006KT 22/20 A2995 RMK A01 T02150198  RH  095%=      5-min Rain = 0
KMES 061035Z 11008G14KT 22/20 A2994 RMK A01 T02150198  RH  095%=      5-min Rain = 0
KMES 061040Z 12013KT 22/20 A2992 RMK A01 T02150198  RH  095%=      5-min Rain = 0
KMES 061045Z 12008G16KT 22/20 A2993 RMK A01 T02150198  RH  096%=      5-min Rain = 0
KMES 061050Z 04002KT 22/20 A2995 RMK A01 T02150198  RH  096%=      5-min Rain = 0
KMES 061055Z 33004KT 22/20 A2996 RMK A01 T02150199  RH  096%=      5-min Rain = 0
KMES 061100Z 07002KT 22/20 A2996 RMK A01 T02150199  RH  096%=      5-min Rain = 0
KMES 061105Z 12004KT 22/20 A2995 RMK A01 T02160199  RH  096%=      5-min Rain = 0
KMES 061110Z 12004KT 22/20 A2996 RMK A01 T02160200  RH  096%=      5-min Rain = 0
KMES 061115Z 10002KT 22/20 A2996 RMK A01 T02160200  RH  096%=      5-min Rain = 0
KMES 061120Z 05002KT 22/20 A2996 RMK A01 T02160200  RH  096%=      5-min Rain = 0
KMES 061125Z 07003KT 22/20 A2996 RMK A01 T02170200  RH  096%=      5-min Rain = 0
KMES 061130Z 09003KT 22/20 A2996 RMK A01 T02170200  RH  096%=      5-min Rain = 0
KMES 061135Z 10003KT 22/20 A2996 RMK A01 T02170200  RH  096%=      5-min Rain = 0
KMES 061140Z 10003KT 22/20 A2996 RMK A01 T02170200  RH  096%=      5-min Rain = 0
KMES 061145Z 10003KT 22/20 A2996 RMK A01 T02170200  RH  096%=      5-min Rain = 0
KMES 061150Z 11004KT 22/20 A2996 RMK A01 T02170200  RH  095%=      5-min Rain = 0
KMES 061155Z 10004KT 22/20 A2996 RMK A01 T02170200  RH  095%=      5-min Rain = 0
KMES 061200Z 11003KT 22/20 A2996 RMK A01 T02170200  RH  095%=      5-min Rain = 0
KMES 061205Z 11003KT 22/20 A2996 RMK A01 T02180201  RH  095%=      5-min Rain = 0
KMES 061210Z 11004KT 22/20 A2996 RMK A01 T02180201  RH  095%=      5-min Rain = 0
KMES 061215Z 11003KT 22/20 A2996 RMK A01 T02180201  RH  095%=      5-min Rain = 0
KMES 061220Z 11003KT 22/20 A2996 RMK A01 T02180201  RH  095%=      5-min Rain = 0
KMES 061225Z 12003KT 22/20 A2996 RMK A01 T02180201  RH  096%=      5-min Rain = 0
KMES 061230Z 12003KT 22/20 A2996 RMK A01 T02180201  RH  096%=      5-min Rain = 0
KMES 061235Z 12003KT 22/20 A2996 RMK A01 T02180201  RH  096%=      5-min Rain = 0
KMES 061240Z 13003KT 22/20 A2996 RMK A01 T02180201  RH  095%=      5-min Rain = 0
KMES 061245Z 11003KT 22/20 A2996 RMK A01 T02190202  RH  095%=      5-min Rain = 0
KMES 061250Z 11003KT 22/20 A2996 RMK A01 T02190202  RH  096%=      5-min Rain = 0
KMES 061255Z 10002KT 22/20 A2996 RMK A01 T02190202  RH  095%=      5-min Rain = 0
KMES 061300Z 10003KT 22/20 A2996 RMK A01 T02190202  RH  095%=      5-min Rain = 0
KMES 061305Z 12003KT 22/20 A2996 RMK A01 T02200202  RH  095%=      5-min Rain = 0
KMES 061310Z 11003KT 22/20 A2996 RMK A01 T02210203  RH  095%=      5-min Rain = 0
KMES 061315Z 11003KT 22/20 A2996 RMK A01 T02220204  RH  095%=      5-min Rain = 0
KMES 061320Z 13004KT 22/20 A2996 RMK A01 T02230204  RH  095%=      5-min Rain = 0
KMES 061325Z 12005KT 22/20 A2996 RMK A01 T02230204  RH  094%=      5-min Rain = 0
KMES 061330Z 11004KT 22/20 A2996 RMK A01 T02240204  RH  094%=      5-min Rain = 0
KMES 061335Z 11004KT 22/20 A2996 RMK A01 T02240204  RH  093%=      5-min Rain = 0
KMES 061340Z 11004KT 22/20 A2996 RMK A01 T02240203  RH  093%=      5-min Rain = 0
KMES 061345Z 10003KT 23/20 A2996 RMK A01 T02250204  RH  093%=      5-min Rain = 0
KMES 061350Z 11003KT 23/20 A2997 RMK A01 T02260203  RH  092%=      5-min Rain = 0
KMES 061355Z 12004KT 23/20 A2997 RMK A01 T02270204  RH  092%=      5-min Rain = 0
KMES 061400Z 13003KT 23/20 A2997 RMK A01 T02280204  RH  091%=      5-min Rain = 0
KMES 061405Z 13005KT 23/20 A2997 RMK A01 T02300204  RH  091%=      5-min Rain = 0
KMES 061410Z 14004KT 23/20 A2997 RMK A01 T02300204  RH  090%=      5-min Rain = 0
KMES 061415Z 12004KT 23/20 A2997 RMK A01 T02310204  RH  090%=      5-min Rain = 0
KMES 061420Z 14004KT 23/21 A2997 RMK A01 T02340205  RH  089%=      5-min Rain = 0
KMES 061425Z 14004KT 24/21 A2997 RMK A01 T02370206  RH  088%=      5-min Rain = 0
KMES 061430Z 14004KT 24/20 A2997 RMK A01 T02390204  RH  086%=      5-min Rain = 0
KMES 061435Z 11004KT 24/20 A2996 RMK A01 T02400204  RH  086%=      5-min Rain = 0
KMES 061440Z 13005KT 24/20 A2997 RMK A01 T02410204  RH  085%=      5-min Rain = 0
KMES 061445Z 13005KT 24/20 A2997 RMK A01 T02440204  RH  083%=      5-min Rain = 0
KMES 061450Z 14005KT 25/21 A2996 RMK A01 T02470205  RH  082%=      5-min Rain = 0
KMES 061455Z 13006KT 25/20 A2996 RMK A01 T02530204  RH  079%=      5-min Rain = 0
KMES 061500Z 12005KT 26/20 A2996 RMK A01 T02550204  RH  078%=      5-min Rain = 0
KMES 061505Z 12006KT 26/20 A2997 RMK A01 T02570203  RH  077%=      5-min Rain = 0
KMES 061510Z 12005KT 26/20 A2997 RMK A01 T02590203  RH  075%=      5-min Rain = 0
KMES 061515Z 14005KT 26/20 A2997 RMK A01 T02600202  RH  075%=      5-min Rain = 0
KMES 061520Z 13004KT 26/20 A2997 RMK A01 T02630202  RH  073%=      5-min Rain = 0
KMES 061525Z 15004KT 27/20 A2997 RMK A01 T02650200  RH  071%=      5-min Rain = 0
KMES 061530Z 11004KT 27/20 A2997 RMK A01 T02660201  RH  071%=      5-min Rain = 0
KMES 061535Z 13004KT 27/20 A2997 RMK A01 T02680200  RH  070%=      5-min Rain = 0
KMES 061540Z 13004KT 27/20 A2997 RMK A01 T02710200  RH  069%=      5-min Rain = 0
KMES 061545Z 13004KT 27/20 A2997 RMK A01 T02730199  RH  068%=      5-min Rain = 0
KMES 061550Z 13004KT 28/20 A2997 RMK A01 T02780200  RH  066%=      5-min Rain = 0
KMES 061555Z 13004KT 28/20 A2997 RMK A01 T02830196  RH  063%=      5-min Rain = 0
KMES 061600Z 17005KT 29/19 A2996 RMK A01 T02870191  RH  059%=      5-min Rain = 0
KMES 061605Z 17005KT 29/18 A2997 RMK A01 T02920184  RH  055%=      5-min Rain = 0
KMES 061610Z 18004KT 29/18 A2997 RMK A01 T02930183  RH  054%=      5-min Rain = 0
KMES 061615Z 18005KT 30/18 A2997 RMK A01 T02950179  RH  053%=      5-min Rain = 0
KMES 061620Z 20006KT 30/18 A2997 RMK A01 T02960176  RH  051%=      5-min Rain = 0
KMES 061625Z 19005KT 30/18 A2997 RMK A01 T02970176  RH  051%=      5-min Rain = 0
KMES 061630Z 18004KT 30/18 A2997 RMK A01 T02980176  RH  050%=      5-min Rain = 0
KMES 061635Z 17005KT 30/18 A2997 RMK A01 T03000175  RH  050%=      5-min Rain = 0
KMES 061640Z 17006KT 30/18 A2997 RMK A01 T03020175  RH  049%=      5-min Rain = 0
KMES 061645Z 17006KT 30/17 A2997 RMK A01 T03030174  RH  048%=      5-min Rain = 0
KMES 061650Z 18006KT 30/17 A2997 RMK A01 T03040172  RH  048%=      5-min Rain = 0
KMES 061655Z 18006KT 30/17 A2997 RMK A01 T03040173  RH  048%=      5-min Rain = 0
KMES 061700Z 19006KT 31/17 A2997 RMK A01 T03050173  RH  048%=      5-min Rain = 0
KMES 061705Z 19006KT 31/17 A2997 RMK A01 T03060173  RH  047%=      5-min Rain = 0
KMES 061710Z 19007KT 31/17 A2997 RMK A01 T03060170  RH  047%=      5-min Rain = 0
KMES 061715Z 19006KT 31/17 A2997 RMK A01 T03050166  RH  045%=      5-min Rain = 0
KMES 061720Z 19006KT 31/17 A2997 RMK A01 T03060166  RH  045%=      5-min Rain = 0
KMES 061725Z 18006KT 31/17 A2997 RMK A01 T03070166  RH  045%=      5-min Rain = 0
KMES 061730Z 19006KT 31/16 A2997 RMK A01 T03090163  RH  044%=      5-min Rain = 0
KMES 061735Z 21006KT 31/16 A2997 RMK A01 T03110163  RH  043%=      5-min Rain = 0
KMES 061740Z 22005KT 31/16 A2997 RMK A01 T03110161  RH  043%=      5-min Rain = 0
KMES 061745Z 24005KT 31/16 A2998 RMK A01 T03090162  RH  043%=      5-min Rain = 0
KMES 061750Z 20003KT 31/16 A2997 RMK A01 T03090164  RH  044%=      5-min Rain = 0
KMES 061755Z 22003KT 31/17 A2997 RMK A01 T03100166  RH  044%=      5-min Rain = 0
KMES 061800Z 25003KT 31/17 A2997 RMK A01 T03100167  RH  045%=      5-min Rain = 0
KMES 061805Z 22002KT 31/17 A2997 RMK A01 T03090174  RH  047%=      5-min Rain = 0
KMES 061810Z 20002KT 31/16 A2997 RMK A01 T03110164  RH  043%=      5-min Rain = 0
KMES 061815Z 14002KT 31/16 A2997 RMK A01 T03130164  RH  043%=      5-min Rain = 0
KMES 061820Z 11004KT 32/16 A2996 RMK A01 T03150162  RH  042%=      5-min Rain = 0
KMES 061825Z 11003KT 32/16 A2996 RMK A01 T03150162  RH  042%=      5-min Rain = 0
KMES 061830Z 15003KT 32/16 A2996 RMK A01 T03190160  RH  040%=      5-min Rain = 0
KMES 061835Z 14004KT 32/16 A2996 RMK A01 T03210158  RH  039%=      5-min Rain = 0
KMES 061840Z 14004KT 32/16 A2996 RMK A01 T03200158  RH  040%=      5-min Rain = 0
KMES 061845Z 16006KT 32/16 A2997 RMK A01 T03180157  RH  040%=      5-min Rain = 0
KMES 061850Z 17007G12KT 32/16 A2997 RMK A01 T03160156  RH  040%=      5-min Rain = 0
KMES 061855Z 17008KT 31/16 A2996 RMK A01 T03140156  RH  041%=      5-min Rain = 0
KMES 061900Z 15007G12KT 31/17 A2996 RMK A01 T03070168  RH  045%=      5-min Rain = 0
KMES 061905Z 14005KT 30/18 A2995 RMK A01 T02990179  RH  051%=      5-min Rain = 0
KMES 061910Z 15006KT 30/17 A2995 RMK A01 T02960173  RH  050%=      5-min Rain = 0
KMES 061915Z 16005G11KT 30/17 A2995 RMK A01 T02970169  RH  049%=      5-min Rain = 0
KMES 061920Z 14008KT 30/18 A2994 RMK A01 T02980175  RH  050%=      5-min Rain = 0
KMES 061925Z 14009KT 30/18 A2994 RMK A01 T02980180  RH  052%=      5-min Rain = 0
KMES 061930Z 18006KT 30/18 A2995 RMK A01 T02990177  RH  050%=      5-min Rain = 0
KMES 061935Z 15006KT 30/18 A2995 RMK A01 T03030175  RH  049%=      5-min Rain = 0
KMES 061940Z 14005KT 31/18 A2994 RMK A01 T03060180  RH  050%=      5-min Rain = 0
KMES 061945Z 14008KT 31/18 A2994 RMK A01 T03090175  RH  047%=      5-min Rain = 0
KMES 061950Z 15006KT 31/17 A2994 RMK A01 T03120173  RH  046%=      5-min Rain = 0
KMES 061955Z 16006KT 31/17 A2994 RMK A01 T03120171  RH  045%=      5-min Rain = 0
KMES 062000Z 17007KT 31/17 A2995 RMK A01 T03140170  RH  044%=      5-min Rain = 0
KMES 062005Z 16008KT 32/17 A2995 RMK A01 T03190168  RH  042%=      5-min Rain = 0
KMES 062010Z 14009KT 32/16 A2994 RMK A01 T03230163  RH  040%=      5-min Rain = 0
KMES 062015Z 14010KT 32/16 A2994 RMK A01 T03230159  RH  039%=      5-min Rain = 0
KMES 062020Z 14009KT 32/16 A2994 RMK A01 T03230162  RH  040%=      5-min Rain = 0
KMES 062025Z 13012G17KT 32/16 A2993 RMK A01 T03230161  RH  040%=      5-min Rain = 0
KMES 062030Z 14012KT 32/16 A2993 RMK A01 T03240158  RH  039%=      5-min Rain = 0
KMES 062035Z 14010KT 33/16 A2993 RMK A01 T03250161  RH  039%=      5-min Rain = 0
KMES 062040Z 13011KT 33/16 A2993 RMK A01 T03260160  RH  039%=      5-min Rain = 0
KMES 062045Z 13011KT 33/16 A2993 RMK A01 T03250161  RH  039%=      5-min Rain = 0
KMES 062050Z 13012KT 32/16 A2993 RMK A01 T03240160  RH  039%=      5-min Rain = 0
KMES 062055Z 12011KT 32/16 A2992 RMK A01 T03240161  RH  039%=      5-min Rain = 0
KMES 062100Z 13013KT 33/16 A2992 RMK A01 T03250160  RH  039%=      5-min Rain = 0
KMES 062105Z 13013KT 33/16 A2991 RMK A01 T03260157  RH  038%=      5-min Rain = 0
KMES 062110Z 13013KT 33/16 A2991 RMK A01 T03300159  RH  038%=      5-min Rain = 0
KMES 062115Z 13013KT 34/16 A2991 RMK A01 T03380159  RH  036%=      5-min Rain = 0
KMES 062120Z 13012G17KT 34/16 A2991 RMK A01 T03380160  RH  036%=      5-min Rain = 0
KMES 062125Z 14009KT 34/16 A2991 RMK A01 T03360162  RH  037%=      5-min Rain = 0
KMES 062130Z 14009KT 34/16 A2991 RMK A01 T03390162  RH  037%=      5-min Rain = 0
KMES 062135Z 13010KT 34/16 A299 RMK A01 T03440160  RH  035%=      5-min Rain = 0
KMES 062140Z 14011KT 35/15 A299 RMK A01 T03540148  RH  031%=      5-min Rain = 0
KMES 062145Z 14014KT 36/15 A299 RMK A01 T03600145  RH  029%=      5-min Rain = 0
KMES 062150Z 15014G19KT 36/14 A299 RMK A01 T03590140  RH  028%=      5-min Rain = 0
KMES 062155Z 15014G22KT 36/13 A299 RMK A01 T03570133  RH  027%=      5-min Rain = 0
KMES 062200Z 14015G23KT 36/13 A2989 RMK A01 T03570128  RH  026%=      5-min Rain = 0
KMES 062205Z 15015KT 36/13 A2989 RMK A01 T03560128  RH  026%=      5-min Rain = 0
KMES 062210Z 15013G19KT 35/13 A2989 RMK A01 T03540128  RH  027%=      5-min Rain = 0
KMES 062215Z 15012G19KT 36/13 A2989 RMK A01 T03570129  RH  026%=      5-min Rain = 0
KMES 062220Z 14010G15KT 36/13 A2989 RMK A01 T03560132  RH  027%=      5-min Rain = 0
KMES 062225Z 14013G18KT 36/13 A2988 RMK A01 T03600133  RH  027%=      5-min Rain = 0
KMES 062230Z 14014G20KT 36/13 A2988 RMK A01 T03630133  RH  026%=      5-min Rain = 0
KMES 062235Z 13013KT 37/13 A2988 RMK A01 T03670128  RH  025%=      5-min Rain = 0
KMES 062240Z 14014G20KT 37/12 A2988 RMK A01 T03710121  RH  023%=      5-min Rain = 0
KMES 062245Z 14013G18KT 37/12 A2988 RMK A01 T03720119  RH  023%=      5-min Rain = 0
KMES 062250Z 15012G19KT 37/12 A2988 RMK A01 T03710124  RH  024%=      5-min Rain = 0
KMES 062255Z 15013G19KT 37/13 A2988 RMK A01 T03710125  RH  024%=      5-min Rain = 0
KMES 062300Z 14014G20KT 37/13 A2988 RMK A01 T03690128  RH  025%=      5-min Rain = 0
KMES 062305Z 15014G20KT 37/13 A2988 RMK A01 T03670130  RH  025%=      5-min Rain = 0
KMES 062310Z 14014KT 37/13 A2988 RMK A01 T03670131  RH  025%=      5-min Rain = 0
KMES 062315Z 14014G19KT 37/13 A2988 RMK A01 T03660134  RH  026%=      5-min Rain = 0
KMES 062320Z 15015G21KT 37/13 A2987 RMK A01 T03650132  RH  026%=      5-min Rain = 0
KMES 062325Z 14014G19KT 36/13 A2987 RMK A01 T03640133  RH  026%=      5-min Rain = 0
KMES 062330Z 14014G20KT 36/13 A2986 RMK A01 T03610131  RH  026%=      5-min Rain = 0
KMES 062335Z 15014G21KT 36/13 A2986 RMK A01 T03560131  RH  027%=      5-min Rain = 0
KMES 062340Z 14015G20KT 35/13 A2986 RMK A01 T03530130  RH  027%=      5-min Rain = 0
KMES 062345Z 15013G19KT 35/13 A2986 RMK A01 T03520132  RH  028%=      5-min Rain = 0
KMES 062350Z 15013G18KT 35/13 A2986 RMK A01 T03500133  RH  028%=      5-min Rain = 0
KMES 062355Z 14013G19KT 35/13 A2986 RMK A01 T03500134  RH  028%=      5-min Rain = 0
KMES 070000Z 14013G19KT 35/14 A2986 RMK A01 T03500136  RH  029%=      5-min Rain = 0
KMES 070005Z 14011KT 35/14 A2986 RMK A01 T03500137  RH  029%=      5-min Rain = 0
KMES 070010Z 14012G17KT 35/14 A2986 RMK A01 T03490139  RH  030%=      5-min Rain = 0
KMES 070015Z 15012G18KT 35/14 A2986 RMK A01 T03490140  RH  030%=      5-min Rain = 0
KMES 070020Z 14011KT 35/14 A2986 RMK A01 T03470141  RH  030%=      5-min Rain = 0
KMES 070025Z 14011G16KT 35/14 A2986 RMK A01 T03460143  RH  031%=      5-min Rain = 0
KMES 070030Z 14010KT 34/15 A2986 RMK A01 T03440145  RH  032%=      5-min Rain = 0
KMES 070035Z 14012G18KT 34/14 A2986 RMK A01 T03440143  RH  031%=      5-min Rain = 0
KMES 070040Z 14013KT 35/14 A2986 RMK A01 T03450143  RH  031%=      5-min Rain = 0
KMES 070045Z 15012G17KT 35/14 A2987 RMK A01 T03450143  RH  031%=      5-min Rain = 0
KMES 070050Z 15012G17KT 35/14 A2987 RMK A01 T03450144  RH  031%=      5-min Rain = 0
KMES 070055Z 15010G15KT 34/15 A2987 RMK A01 T03430145  RH  032%=      5-min Rain = 0
KMES 070100Z 14010G15KT 34/15 A2987 RMK A01 T03420146  RH  032%=      5-min Rain = 0
KMES 070105Z 14010G16KT 34/15 A2987 RMK A01 T03410147  RH  033%=      5-min Rain = 0
KMES 070110Z 14010G15KT 34/15 A2987 RMK A01 T03400147  RH  033%=      5-min Rain = 0
KMES 070115Z 14010KT 34/15 A2988 RMK A01 T03390148  RH  033%=      5-min Rain = 0
KMES 070120Z 14011KT 34/15 A2988 RMK A01 T03390148  RH  033%=      5-min Rain = 0
KMES 070125Z 14011KT 34/15 A2987 RMK A01 T03370149  RH  034%=      5-min Rain = 0
KMES 070130Z 14012KT 34/15 A2987 RMK A01 T03350150  RH  034%=      5-min Rain = 0
KMES 070135Z 14011KT 33/15 A2987 RMK A01 T03340151  RH  035%=      5-min Rain = 0
KMES 070140Z 14011KT 33/15 A2987 RMK A01 T03320150  RH  035%=      5-min Rain = 0
KMES 070145Z 15012G18KT 33/15 A2987 RMK A01 T03330147  RH  034%=      5-min Rain = 0
KMES 070150Z 15010KT 33/15 A2988 RMK A01 T03330148  RH  034%=      5-min Rain = 0
KMES 070155Z 15010KT 33/15 A2988 RMK A01 T03320148  RH  034%=      5-min Rain = 0
KMES 070200Z 15011G17KT 33/15 A2988 RMK A01 T03320146  RH  034%=      5-min Rain = 0
KMES 070205Z 16011G16KT 33/15 A2988 RMK A01 T03320146  RH  034%=      5-min Rain = 0
KMES 070210Z 15011G16KT 33/15 A2988 RMK A01 T03320145  RH  034%=      5-min Rain = 0
KMES 070215Z 16010G16KT 33/15 A2988 RMK A01 T03320145  RH  034%=      5-min Rain = 0
KMES 070220Z 15010G16KT 33/15 A2987 RMK A01 T03310146  RH  034%=      5-min Rain = 0
KMES 070225Z 15012G17KT 33/15 A2987 RMK A01 T03300146  RH  034%=      5-min Rain = 0
KMES 070230Z 15011KT 33/15 A2987 RMK A01 T03300147  RH  035%=      5-min Rain = 0
KMES 070235Z 15011G16KT 33/15 A2988 RMK A01 T03290148  RH  035%=      5-min Rain = 0
KMES 070240Z 15011KT 33/15 A2988 RMK A01 T03280149  RH  036%=      5-min Rain = 0
KMES 070245Z 15010G15KT 33/15 A2988 RMK A01 T03270150  RH  036%=      5-min Rain = 0
KMES 070250Z 15010KT 33/15 A2988 RMK A01 T03250151  RH  037%=      5-min Rain = 0
KMES 070255Z 15010KT 32/15 A2988 RMK A01 T03240152  RH  037%=      5-min Rain = 0
KMES 070300Z 15010KT 32/15 A2988 RMK A01 T03240152  RH  037%=      5-min Rain = 0
KMES 070305Z 16010G15KT 32/15 A2988 RMK A01 T03230152  RH  037%=      5-min Rain = 0
KMES 070310Z 16011G17KT 32/15 A2988 RMK A01 T03230152  RH  037%=      5-min Rain = 0
KMES 070315Z 16010G15KT 32/15 A2988 RMK A01 T03230152  RH  037%=      5-min Rain = 0
KMES 070320Z 16010G16KT 32/15 A2989 RMK A01 T03220153  RH  038%=      5-min Rain = 0
KMES 070325Z 16010G16KT 32/15 A2989 RMK A01 T03210152  RH  038%=      5-min Rain = 0
KMES 070330Z 16009G14KT 32/15 A2989 RMK A01 T03200152  RH  038%=      5-min Rain = 0
KMES 070335Z 16009G14KT 32/15 A2989 RMK A01 T03200152  RH  038%=      5-min Rain = 0
KMES 070340Z 16008KT 32/15 A2989 RMK A01 T03190153  RH  038%=      5-min Rain = 0
KMES 070345Z 15008G14KT 32/15 A2989 RMK A01 T03180152  RH  038%=      5-min Rain = 0
KMES 070350Z 15007KT 32/15 A2989 RMK A01 T03160152  RH  039%=      5-min Rain = 0
KMES 070355Z 15008KT 32/15 A2989 RMK A01 T03150152  RH  039%=      5-min Rain = 0
KMES 070400Z 15007G12KT 31/15 A2989 RMK A01 T03140152  RH  039%=      5-min Rain = 0
KMES 070405Z 15007KT 31/15 A2989 RMK A01 T03130152  RH  039%=      5-min Rain = 0
KMES 070410Z 16007KT 31/15 A299 RMK A01 T03130152  RH  039%=      5-min Rain = 0
KMES 070415Z 16008KT 31/15 A299 RMK A01 T03130151  RH  039%=      5-min Rain = 0
KMES 070420Z 15007KT 31/15 A299 RMK A01 T03130151  RH  039%=      5-min Rain = 0
KMES 070425Z 16007KT 31/15 A299 RMK A01 T03120151  RH  039%=      5-min Rain = 0
KMES 070430Z 15007KT 31/15 A2991 RMK A01 T03100152  RH  040%=      5-min Rain = 0
KMES 070435Z 15007KT 31/15 A2991 RMK A01 T03090152  RH  041%=      5-min Rain = 0
KMES 070440Z 15006KT 31/15 A2991 RMK A01 T03070153  RH  041%=      5-min Rain = 0
KMES 070445Z 15005KT 31/15 A2991 RMK A01 T03050153  RH  042%=      5-min Rain = 0
KMES 070450Z 15005KT 30/15 A2991 RMK A01 T03040153  RH  042%=      5-min Rain = 0
KMES 070455Z 15005KT 30/15 A2991 RMK A01 T03030154  RH  042%=      5-min Rain = 0

Page generated in 0.0289 seconds.